Time;durP1;ratioP1;P1;durP2;ratioP2;P2;SDS_P1;SDS_P2;PMS_P1;PMS_P2;Temp;Humidity;BMP_temperature;BMP_pressure;BME280_temperature;BME280_humidity;BME280_pressure;Samples;Min_cycle;Max_cycle;Signal;HPM_P1;HPM_P2
2021/12/15 00:01:12;;;;;;;9.25;1.85;;;25.30;98.20;;;;;;4967323;28;20372;-70
2021/12/15 00:03:39;;;;;;;7.75;1.80;;;25.50;97.50;;;;;;4967747;28;20468;-71
2021/12/15 00:06:16;;;;;;;6.57;2.83;;;25.60;96.30;;;;;;4966859;28;20074;-70
2021/12/15 00:08:45;;;;;;;9.88;2.40;;;25.60;96.00;;;;;;4966657;28;20045;-71
2021/12/15 00:11:13;;;;;;;6.95;2.15;;;25.80;96.40;;;;;;4967147;28;20027;-72
2021/12/15 00:13:42;;;;;;;9.35;2.13;;;26.00;96.90;;;;;;4966172;28;20031;-70
2021/12/15 00:16:11;;;;;;;8.98;2.47;;;26.30;96.90;;;;;;4966942;28;20034;-71
2021/12/15 00:18:41;;;;;;;9.43;2.10;;;26.40;96.70;;;;;;4967035;28;20029;-73
2021/12/15 00:21:11;;;;;;;6.05;1.75;;;26.50;96.60;;;;;;4966730;28;20110;-71
2021/12/15 00:23:40;;;;;;;8.35;2.53;;;26.60;95.30;;;;;;4966856;28;20069;-70
2021/12/15 00:26:07;;;;;;;6.93;1.90;;;26.80;95.80;;;;;;4966607;28;20383;-70
2021/12/15 00:28:34;;;;;;;7.38;2.13;;;26.90;94.00;;;;;;4966377;28;20035;-74
2021/12/15 00:31:02;;;;;;;8.55;2.20;;;26.90;95.00;;;;;;4966561;28;20015;-70
2021/12/15 00:33:29;;;;;;;6.55;1.83;;;27.00;94.70;;;;;;4966544;28;20041;-69
2021/12/15 00:35:56;;;;;;;10.77;2.13;;;27.10;95.30;;;;;;4966111;28;20030;-71
2021/12/15 00:38:24;;;;;;;8.65;2.72;;;27.20;95.30;;;;;;4966167;28;20035;-72
2021/12/15 00:40:52;;;;;;;9.35;2.58;;;27.30;94.80;;;;;;4967392;28;20030;-70
2021/12/15 00:43:19;;;;;;;7.00;1.70;;;27.30;93.80;;;;;;4968510;28;20043;-71
2021/12/15 00:45:47;;;;;;;11.10;2.13;;;27.30;94.00;;;;;;4970357;28;20019;-70
2021/12/15 00:48:16;;;;;;;7.25;2.38;;;27.40;94.80;;;;;;4970093;28;20090;-70
2021/12/15 00:50:46;;;;;;;9.93;2.20;;;27.50;94.90;;;;;;4969961;28;20086;-72
2021/12/15 00:53:14;;;;;;;6.72;1.80;;;27.50;94.40;;;;;;4970367;28;20113;-71
2021/12/15 00:55:43;;;;;;;12.88;2.15;;;27.60;94.00;;;;;;4970488;28;20621;-73
2021/12/15 00:58:12;;;;;;;6.65;1.88;;;27.80;94.30;;;;;;4970260;28;20043;-70
2021/12/15 01:00:52;;;;;;;7.90;2.47;;;27.80;94.50;;;;;;4970442;28;21056;-68
2021/12/15 01:03:20;;;;;;;6.25;2.28;;;28.00;93.70;;;;;;4970774;28;20131;-71
2021/12/15 01:05:53;;;;;;;7.78;2.45;;;28.00;93.60;;;;;;4970228;28;20027;-70
2021/12/15 01:08:25;;;;;;;8.55;2.22;;;28.10;93.70;;;;;;4969976;28;20474;-70
2021/12/15 01:21:53;;;;;;;7.75;1.75;;;28.60;92.30;;;;;;4969555;28;20344;-69
2021/12/15 01:24:22;;;;;;;10.77;2.50;;;28.80;92.40;;;;;;4969465;28;20102;-70
2021/12/15 01:26:50;;;;;;;8.35;2.30;;;29.00;91.70;;;;;;4969458;28;20026;-73
2021/12/15 01:29:17;;;;;;;10.77;2.28;;;29.20;92.10;;;;;;4970026;28;20467;-72
2021/12/15 01:31:45;;;;;;;9.43;2.10;;;29.40;91.90;;;;;;4969565;28;20407;-68
2021/12/15 01:34:12;;;;;;;5.45;1.98;;;29.60;91.00;;;;;;4969350;28;20109;-71
2021/12/15 01:36:40;;;;;;;7.38;2.13;;;29.70;90.50;;;;;;4969271;28;20030;-73
2021/12/15 01:39:07;;;;;;;9.02;2.00;;;29.70;90.20;;;;;;4969475;28;20029;-71
2021/12/15 01:41:34;;;;;;;7.25;1.60;;;29.60;90.10;;;;;;4969321;28;20042;-72
2021/12/15 01:46:58;;;;;;;7.72;2.05;;;29.60;90.60;;;;;;4969418;28;20045;-70
2021/12/15 01:49:37;;;;;;;9.07;2.58;;;29.60;89.50;;;;;;4969413;28;20542;-73
2021/12/15 01:52:07;;;;;;;7.18;2.08;;;29.70;89.50;;;;;;4969002;28;20427;-70
2021/12/15 01:54:37;;;;;;;11.18;2.40;;;29.70;89.40;;;;;;4968345;28;20038;-71
2021/12/15 01:57:06;;;;;;;8.75;2.78;;;29.80;90.00;;;;;;4969323;28;20846;-74
2021/12/15 01:59:34;;;;;;;11.65;3.10;;;30.00;89.20;;;;;;4969152;28;20498;-71
2021/12/15 02:02:03;;;;;;;10.23;2.10;;;30.20;88.90;;;;;;4969049;28;20046;-72
2021/12/15 02:04:30;;;;;;;15.48;2.60;;;30.20;87.70;;;;;;4969037;28;20069;-73
2021/12/15 02:06:58;;;;;;;7.40;2.20;;;30.10;88.20;;;;;;4968366;28;20143;-74
2021/12/15 02:09:48;;;;;;;10.30;2.40;;;30.10;87.70;;;;;;4968403;28;20041;-72
2021/12/15 02:12:17;;;;;;;9.00;2.50;;;29.90;87.90;;;;;;4973811;28;20514;-70
2021/12/15 02:14:44;;;;;;;11.40;2.33;;;30.00;87.40;;;;;;4974264;28;20038;-70
2021/12/15 02:17:11;;;;;;;6.53;1.90;;;30.20;90.10;;;;;;4973991;28;20074;-73
2021/12/15 02:19:39;;;;;;;10.93;2.28;;;30.40;87.70;;;;;;4973612;28;20096;-69
2021/12/15 02:22:06;;;;;;;12.13;2.38;;;30.60;86.70;;;;;;4973595;28;20395;-71
2021/12/15 02:24:36;;;;;;;8.75;2.60;;;30.80;86.10;;;;;;4973754;28;20055;-71
2021/12/15 02:27:06;;;;;;;11.50;1.85;;;30.80;84.90;;;;;;4966613;28;20737;-74
2021/12/15 02:29:40;;;;;;;7.93;2.05;;;30.90;84.60;;;;;;4972145;28;20031;-70
2021/12/15 02:32:33;;;;;;;7.80;1.73;;;30.80;83.80;;;;;;4973825;28;20031;-69
2021/12/15 02:37:47;;;;;;;9.38;2.00;;;30.50;83.70;;;;;;4973005;28;20089;-73
2021/12/15 02:40:18;;;;;;;8.02;2.20;;;30.60;83.40;;;;;;4966751;28;20475;-69
2021/12/15 02:42:48;;;;;;;5.87;1.63;;;30.60;83.70;;;;;;4968485;28;20034;-72
2021/12/15 02:45:24;;;;;;;8.20;3.30;;;30.70;82.40;;;;;;4968667;28;20296;-70
2021/12/15 02:47:52;;;;;;;10.10;1.67;;;30.80;81.70;;;;;;4968071;28;20038;-71
2021/12/15 02:50:24;;;;;;;6.40;1.70;;;31.00;82.70;;;;;;4968611;28;20027;-70
2021/12/15 02:52:52;;;;;;;9.88;2.08;;;31.20;79.40;;;;;;4954429;28;20491;-72
2021/12/15 02:55:20;;;;;;;15.35;2.25;;;31.30;79.00;;;;;;4969727;28;20134;-69
2021/12/15 02:57:49;;;;;;;7.10;1.92;;;31.60;79.20;;;;;;4972671;28;20037;-74
2021/12/15 03:00:26;;;;;;;6.35;1.52;;;31.60;77.30;;;;;;4973064;28;20395;-71
2021/12/15 03:05:53;;;;;;;12.20;1.88;;;31.50;76.70;;;;;;4972952;28;20031;-74
2021/12/15 03:08:25;;;;;;;7.30;1.83;;;32.00;77.80;;;;;;4972849;28;20034;-71
2021/12/15 03:16:27;;;;;;;7.20;1.52;;;32.90;71.50;;;;;;4972541;28;20150;-69
2021/12/15 03:18:58;;;;;;;10.38;2.00;;;33.00;71.70;;;;;;4973403;28;20399;-68
2021/12/15 03:21:27;;;;;;;7.45;1.55;;;33.00;70.00;;;;;;4973099;28;20027;-69
2021/12/15 03:24:08;;;;;;;6.78;1.73;;;32.80;69.60;;;;;;4964774;28;20541;-69
2021/12/15 03:26:43;;;;;;;8.27;1.80;;;32.50;70.60;;;;;;4966180;28;20039;-70
2021/12/15 03:37:31;;;;;;;7.35;1.80;;;33.20;67.20;;;;;;4967937;28;20018;-75
2021/12/15 03:40:14;;;;;;;4.72;1.55;;;33.30;66.90;;;;;;4968056;28;20039;-68
2021/12/15 03:42:47;;;;;;;3.53;1.13;;;34.00;65.20;;;;;;4967938;28;20039;-77
2021/12/15 03:45:30;;;;;;;4.55;1.23;;;33.90;65.20;;;;;;4967646;28;20369;-78
2021/12/15 03:48:03;;;;;;;5.78;1.50;;;33.80;64.00;;;;;;4966253;28;20106;-72
2021/12/15 03:50:32;;;;;;;7.38;1.85;;;33.80;65.30;;;;;;4967662;28;20019;-70
2021/12/15 03:52:59;;;;;;;6.65;1.25;;;34.10;64.70;;;;;;4967668;28;20121;-72
2021/12/15 03:55:32;;;;;;;5.38;1.77;;;34.10;65.10;;;;;;4966012;28;20179;-71
2021/12/15 03:58:01;;;;;;;12.73;1.77;;;34.30;63.40;;;;;;4968022;28;20027;-72
2021/12/15 04:00:29;;;;;;;6.55;1.35;;;33.80;63.70;;;;;;4967956;28;20034;-74
2021/12/15 04:02:57;;;;;;;6.80;1.65;;;33.90;64.60;;;;;;4967387;28;20030;-71
2021/12/15 04:05:25;;;;;;;6.15;1.50;;;34.40;64.30;;;;;;4967131;28;20154;-69
2021/12/15 04:07:54;;;;;;;11.60;1.50;;;34.70;62.40;;;;;;4966208;28;20118;-69
2021/12/15 04:10:25;;;;;;;10.45;1.27;;;34.30;62.50;;;;;;4966509;28;20105;-70
2021/12/15 04:12:53;;;;;;;5.50;0.90;;;34.30;62.70;;;;;;4966984;28;20117;-71
2021/12/15 04:17:49;;;;;;;7.18;1.20;;;34.10;62.00;;;;;;4967620;28;20054;-71
2021/12/15 04:20:21;;;;;;;7.53;1.20;;;34.20;62.20;;;;;;4971026;28;20113;-74
2021/12/15 04:22:47;;;;;;;;;;;34.40;61.90;;;;;;4971619;28;20051;-71
2021/12/15 04:25:24;;;;;;;7.53;1.77;;;34.30;61.80;;;;;;4971022;28;19918;-72
2021/12/15 04:27:59;;;;;;;5.97;1.08;;;34.30;62.10;;;;;;4970798;28;20528;-72
2021/12/15 04:30:28;;;;;;;8.52;1.58;;;33.80;62.10;;;;;;4970645;28;20039;-72
2021/12/15 04:32:58;;;;;;;8.13;1.40;;;33.50;63.10;;;;;;4970859;28;20085;-70
2021/12/15 04:35:28;;;;;;;6.68;1.42;;;33.60;62.60;;;;;;4969862;28;20455;-74
2021/12/15 04:37:56;;;;;;;8.10;1.13;;;34.00;62.30;;;;;;4970862;28;20042;-75
2021/12/15 04:40:24;;;;;;;9.40;1.40;;;34.20;61.30;;;;;;4970776;28;20034;-71
2021/12/15 04:42:51;;;;;;;8.07;1.35;;;34.50;60.40;;;;;;4970833;28;20022;-74
2021/12/15 04:45:20;;;;;;;5.47;1.20;;;34.50;61.10;;;;;;4970634;28;20031;-74
2021/12/15 04:47:52;;;;;;;5.57;1.20;;;34.70;60.10;;;;;;4971010;28;20062;-74
2021/12/15 04:50:25;;;;;;;7.05;1.30;;;34.50;60.20;;;;;;4970550;28;20115;-74
2021/12/15 04:52:53;;;;;;;3.67;1.17;;;34.30;60.80;;;;;;4965617;28;20035;-70
2021/12/15 04:55:22;;;;;;;4.22;1.00;;;34.30;60.30;;;;;;4964827;28;20092;-70
2021/12/15 04:57:50;;;;;;;5.53;1.48;;;34.50;60.00;;;;;;4965221;28;20031;-75
2021/12/15 05:00:22;;;;;;;9.20;1.38;;;34.80;60.20;;;;;;4965242;28;20050;-70
2021/12/15 05:02:52;;;;;;;6.00;1.35;;;34.90;60.00;;;;;;4965753;28;20122;-72
2021/12/15 05:05:22;;;;;;;4.35;1.80;;;34.80;59.40;;;;;;4965701;28;20570;-72
2021/12/15 05:07:51;;;;;;;8.23;1.08;;;34.80;60.00;;;;;;4965050;28;20037;-71
2021/12/15 05:10:20;;;;;;;6.28;1.30;;;34.80;58.60;;;;;;4965468;28;20034;-73
2021/12/15 05:12:47;;;;;;;6.38;1.40;;;34.70;59.40;;;;;;4964974;28;20029;-73
2021/12/15 05:15:16;;;;;;;5.50;1.00;;;34.90;59.20;;;;;;4965362;28;20038;-76
2021/12/15 05:17:43;;;;;;;8.10;2.65;;;35.00;57.80;;;;;;4965144;28;20015;-73
2021/12/15 05:20:11;;;;;;;5.03;1.20;;;35.30;58.10;;;;;;4965151;28;20157;-74
2021/12/15 05:22:39;;;;;;;6.68;1.60;;;35.20;58.00;;;;;;4965339;28;20075;-74
2021/12/15 05:25:08;;;;;;;3.50;1.13;;;35.30;57.70;;;;;;4965178;28;20086;-74
2021/12/15 05:27:36;;;;;;;6.57;1.13;;;35.50;57.50;;;;;;4963952;28;20057;-71
2021/12/15 05:30:07;;;;;;;4.03;0.90;;;35.40;57.00;;;;;;4964080;28;20155;-71
2021/12/15 05:32:34;;;;;;;5.70;1.20;;;35.00;57.50;;;;;;4965199;28;20019;-77
2021/12/15 05:35:02;;;;;;;8.13;1.38;;;34.50;58.20;;;;;;4966405;28;20035;-72
2021/12/15 05:37:30;;;;;;;5.93;1.35;;;33.70;59.00;;;;;;4965588;28;20431;-71
2021/12/15 05:39:57;;;;;;;5.75;1.27;;;32.80;59.10;;;;;;4965298;28;20118;-78
2021/12/15 05:42:27;;;;;;;6.32;1.48;;;32.20;60.90;;;;;;4964662;28;20048;-73
2021/12/15 05:44:55;;;;;;;3.50;1.17;;;31.70;61.30;;;;;;4964400;28;20928;-70
2021/12/15 05:47:22;;;;;;;7.40;1.30;;;31.30;61.10;;;;;;4964991;28;20141;-72
2021/12/15 05:49:50;;;;;;;7.50;1.75;;;30.90;62.00;;;;;;4967354;28;20062;-78
2021/12/15 05:52:18;;;;;;;6.38;1.30;;;30.60;62.30;;;;;;4968243;28;20475;-75
2021/12/15 05:54:47;;;;;;;6.07;1.63;;;30.40;63.30;;;;;;4969498;28;20081;-78
2021/12/15 05:57:14;;;;;;;7.97;1.35;;;30.20;63.60;;;;;;4969264;28;20019;-80
2021/12/15 05:59:42;;;;;;;6.97;1.25;;;30.20;63.90;;;;;;4969477;28;20031;-77
2021/12/15 06:02:09;;;;;;;5.45;1.05;;;30.10;65.00;;;;;;4969875;28;20109;-79
2021/12/15 06:04:36;;;;;;;8.27;1.15;;;30.00;65.00;;;;;;4970385;28;20039;-76
2021/12/15 06:07:05;;;;;;;7.00;1.10;;;29.80;66.10;;;;;;4969425;28;20074;-75
2021/12/15 06:09:33;;;;;;;6.75;1.15;;;29.70;65.60;;;;;;4969261;28;20069;-73
2021/12/15 06:12:01;;;;;;;9.63;1.70;;;29.90;65.60;;;;;;4969494;28;20034;-77
2021/12/15 06:14:30;;;;;;;12.07;1.52;;;30.10;64.10;;;;;;4968744;28;20058;-79
2021/12/15 06:17:06;;;;;;;5.38;0.98;;;30.00;64.50;;;;;;4968319;28;20031;-71
2021/12/15 06:19:34;;;;;;;5.00;0.77;;;29.90;65.10;;;;;;4967750;28;20030;-74
2021/12/15 06:22:02;;;;;;;9.02;1.33;;;29.80;65.60;;;;;;4968744;28;20491;-71
2021/12/15 06:24:30;;;;;;;3.80;0.70;;;29.80;65.50;;;;;;4969135;28;20039;-72
2021/12/15 06:27:03;;;;;;;6.55;1.50;;;29.70;66.40;;;;;;4968355;28;20105;-72
2021/12/15 06:29:31;;;;;;;6.95;0.90;;;29.70;66.30;;;;;;4968612;28;20439;-70
2021/12/15 06:31:58;;;;;;;8.88;1.35;;;29.70;66.90;;;;;;4968094;28;20395;-72
2021/12/15 06:34:25;;;;;;;5.22;0.90;;;29.90;67.10;;;;;;4968371;28;20034;-71
2021/12/15 06:36:53;;;;;;;2.45;0.90;;;30.10;66.70;;;;;;4968512;28;20097;-70
2021/12/15 06:39:23;;;;;;;7.68;0.90;;;30.30;66.00;;;;;;4968147;28;20046;-71
2021/12/15 06:41:51;;;;;;;3.03;0.70;;;30.20;65.70;;;;;;4967856;28;20055;-72
2021/12/15 06:44:18;;;;;;;6.15;1.00;;;30.20;66.40;;;;;;4964133;28;20038;-70
2021/12/15 06:58:25;;;;;;;5.60;0.93;;;29.90;67.30;;;;;;4952043;28;20783;-73
2021/12/15 07:00:59;;;;;;;7.97;1.02;;;29.90;67.00;;;;;;4962981;28;20104;-72
2021/12/15 07:03:26;;;;;;;7.13;1.58;;;29.90;68.00;;;;;;4946500;28;20083;-72
2021/12/15 07:05:55;;;;;;;4.30;0.95;;;30.00;67.10;;;;;;4963563;28;20538;-74
2021/12/15 07:08:28;;;;;;;8.63;0.90;;;30.00;67.40;;;;;;4962315;28;20034;-71
2021/12/15 07:10:57;;;;;;;7.68;0.70;;;30.00;67.60;;;;;;4962588;28;20049;-72
2021/12/15 07:13:28;;;;;;;7.55;1.85;;;29.90;67.30;;;;;;4963569;28;20030;-70
2021/12/15 07:16:03;;;;;;;4.53;0.90;;;29.70;68.00;;;;;;4962807;28;20054;-72
2021/12/15 07:18:45;;;;;;;4.97;2.00;;;29.70;67.70;;;;;;4963344;28;20543;-71
2021/12/15 07:21:18;;;;;;;;;;;29.60;68.50;;;;;;4962703;28;20121;-74
2021/12/15 07:23:47;;;;;;;6.15;1.23;;;29.60;68.40;;;;;;4963311;28;19926;-70
2021/12/15 07:26:15;;;;;;;5.85;1.20;;;29.60;68.60;;;;;;4962759;28;20109;-71
2021/12/15 07:28:43;;;;;;;5.82;1.42;;;29.60;69.00;;;;;;4963331;28;20114;-70
2021/12/15 07:31:12;;;;;;;4.25;1.20;;;29.50;69.40;;;;;;4963333;28;20554;-72
2021/12/15 07:33:39;;;;;;;4.65;1.48;;;29.30;69.80;;;;;;4962969;28;20031;-72
2021/12/15 07:36:07;;;;;;;5.15;2.15;;;29.30;70.40;;;;;;4962413;28;20045;-70
2021/12/15 07:38:41;;;;;;;8.25;1.80;;;29.20;70.50;;;;;;4962868;28;20105;-71
2021/12/15 07:41:23;;;;;;;8.48;1.92;;;29.10;71.00;;;;;;4962381;28;20039;-72
2021/12/15 07:43:53;;;;;;;5.30;1.15;;;28.90;71.70;;;;;;4963323;28;20030;-72
2021/12/15 07:46:20;;;;;;;5.38;1.30;;;28.80;72.20;;;;;;4963022;28;20035;-71
2021/12/15 07:48:48;;;;;;;8.18;1.30;;;28.70;72.70;;;;;;4963100;28;20058;-70
2021/12/15 07:51:16;;;;;;;9.90;1.55;;;28.70;73.40;;;;;;4963136;28;20037;-70
2021/12/15 07:53:44;;;;;;;5.63;1.67;;;28.60;73.50;;;;;;4966258;28;20027;-73
2021/12/15 07:56:13;;;;;;;7.50;1.77;;;28.50;73.90;;;;;;4966433;28;20054;-74
2021/12/15 07:58:40;;;;;;;9.02;1.58;;;28.40;74.40;;;;;;4967345;28;20601;-72
2021/12/15 08:01:08;;;;;;;7.28;1.48;;;28.30;74.80;;;;;;4967008;28;20161;-76
2021/12/15 08:03:38;;;;;;;7.35;2.63;;;28.20;75.40;;;;;;4969066;28;20046;-70
2021/12/15 08:06:06;;;;;;;6.80;1.85;;;28.00;75.70;;;;;;4971485;28;20386;-71
2021/12/15 08:08:34;;;;;;;6.18;2.17;;;27.90;76.30;;;;;;4971406;28;20031;-70
2021/12/15 08:11:02;;;;;;;8.65;2.50;;;27.80;76.60;;;;;;4971285;28;20557;-70
2021/12/15 08:13:35;;;;;;;11.57;2.10;;;27.70;77.00;;;;;;4971091;28;20034;-72
2021/12/15 08:16:02;;;;;;;8.75;2.42;;;27.70;77.30;;;;;;4970302;28;20073;-69
2021/12/15 08:18:30;;;;;;;12.18;2.83;;;27.60;77.70;;;;;;4970956;28;20670;-70
2021/12/15 08:21:00;;;;;;;12.80;2.50;;;27.60;78.50;;;;;;4970940;28;20023;-69
2021/12/15 08:23:28;;;;;;;9.77;2.17;;;27.50;78.80;;;;;;4970641;28;20046;-69
2021/12/15 08:25:55;;;;;;;9.65;2.42;;;27.50;78.50;;;;;;4970842;28;20407;-71
2021/12/15 08:28:22;;;;;;;8.15;1.65;;;27.50;79.00;;;;;;4971133;28;20026;-69
2021/12/15 08:30:51;;;;;;;8.40;1.80;;;27.50;79.00;;;;;;4970857;28;20042;-70
2021/12/15 08:33:21;;;;;;;10.50;1.73;;;27.40;79.20;;;;;;4971312;28;20097;-69
2021/12/15 08:35:59;;;;;;;8.20;2.00;;;27.30;79.80;;;;;;4965795;28;20046;-69
2021/12/15 08:38:28;;;;;;;7.45;2.22;;;27.20;80.20;;;;;;4965394;28;20019;-70
2021/12/15 08:40:57;;;;;;;8.07;1.92;;;27.20;81.10;;;;;;4965523;28;20038;-70
2021/12/15 08:43:28;;;;;;;7.78;2.03;;;27.10;81.30;;;;;;4966580;28;20740;-70
2021/12/15 08:46:06;;;;;;;9.15;1.30;;;27.10;81.80;;;;;;4966217;28;20035;-70
2021/12/15 08:48:35;;;;;;;8.32;1.83;;;27.10;81.70;;;;;;4966631;28;20153;-70
2021/12/15 08:51:05;;;;;;;7.65;1.40;;;27.00;82.00;;;;;;4965679;28;20084;-70
2021/12/15 08:53:33;;;;;;;8.35;1.95;;;27.00;82.80;;;;;;4965884;28;20506;-70
2021/12/15 08:56:01;;;;;;;6.15;1.10;;;27.10;81.80;;;;;;4965582;28;20106;-70
2021/12/15 08:58:28;;;;;;;10.20;1.38;;;27.20;79.50;;;;;;4965855;28;20019;-77
2021/12/15 09:01:00;;;;;;;8.70;2.22;;;27.30;80.40;;;;;;4965730;28;20483;-71
2021/12/15 09:03:30;;;;;;;5.00;1.23;;;27.20;85.10;;;;;;4964633;28;20107;-71
2021/12/15 09:06:00;;;;;;;7.53;1.35;;;27.20;87.80;;;;;;4965536;28;20129;-69
2021/12/15 09:08:29;;;;;;;9.15;2.30;;;26.80;90.40;;;;;;4965659;28;20110;-72
2021/12/15 09:10:59;;;;;;;6.65;2.00;;;26.50;92.50;;;;;;4965296;28;20038;-72
2021/12/15 09:13:30;;;;;;;5.32;1.75;;;26.10;93.40;;;;;;4965318;28;20121;-73
2021/12/15 09:16:00;;;;;;;9.30;2.05;;;25.80;95.40;;;;;;4965724;28;20487;-72
2021/12/15 09:18:28;;;;;;;4.22;1.77;;;25.40;95.90;;;;;;4965591;28;20030;-72
2021/12/15 09:20:56;;;;;;;10.77;4.72;;;25.20;98.70;;;;;;4964977;28;20023;-73
2021/12/15 09:23:23;;;;;;;9.88;4.35;;;25.10;99.90;;;;;;4961940;28;20039;-72
2021/12/15 09:25:50;;;;;;;8.75;4.65;;;24.90;99.90;;;;;;4962651;28;20420;-72
2021/12/15 09:28:19;;;;;;;5.78;3.70;;;24.80;99.90;;;;;;4965905;28;20043;-71
2021/12/15 09:30:48;;;;;;;5.68;2.20;;;24.70;99.90;;;;;;4968969;28;20029;-72
2021/12/15 09:33:19;;;;;;;5.93;2.75;;;24.60;99.90;;;;;;4969900;28;20029;-71
2021/12/15 09:35:47;;;;;;;5.60;3.20;;;24.50;99.90;;;;;;4964727;28;20038;-73
2021/12/15 09:38:17;;;;;;;6.32;2.72;;;24.40;99.90;;;;;;4964786;28;20030;-72
2021/12/15 09:40:47;;;;;;;15.18;3.05;;;24.20;99.90;;;;;;4968587;28;20027;-67
2021/12/15 09:43:15;;;;;;;11.27;3.83;;;24.10;99.90;;;;;;4968526;28;20212;-74
2021/12/15 09:46:00;;;;;;;17.50;4.45;;;24.00;99.90;;;;;;4968742;28;20066;-76
2021/12/15 10:02:46;;;;;;;27.95;6.68;;;23.50;99.90;;;;;;4969790;28;20042;-77
2021/12/15 10:11:44;;;;;;;20.13;5.60;;;23.00;99.90;;;;;;4969824;28;20038;-76
2021/12/15 10:19:34;;;;;;;19.63;4.60;;;22.70;99.90;;;;;;4969384;28;20090;-74
2021/12/15 10:22:11;;;;;;;22.98;4.75;;;22.60;99.90;;;;;;4968600;28;20581;-74
2021/12/15 10:24:48;;;;;;;15.13;4.07;;;22.60;99.90;;;;;;4968823;28;20022;-72
2021/12/15 10:27:31;;;;;;;18.30;3.92;;;22.60;99.90;;;;;;4968719;28;20570;-75
2021/12/15 10:30:25;;;;;;;12.90;3.90;;;22.60;99.90;;;;;;4968490;28;20542;-76
2021/12/15 10:32:57;;;;;;;20.55;4.25;;;22.60;99.90;;;;;;4961886;28;20046;-74
2021/12/15 10:35:52;;;;;;;15.32;3.95;;;22.60;99.90;;;;;;4968622;28;20050;-73
2021/12/15 10:38:27;;;;;;;22.35;3.78;;;22.70;99.90;;;;;;4967045;28;20034;-73
2021/12/15 10:41:04;;;;;;;16.50;3.55;;;22.70;99.90;;;;;;4968479;28;20665;-73
2021/12/15 10:43:38;;;;;;;14.45;3.97;;;22.70;99.90;;;;;;4968141;28;20026;-73
2021/12/15 10:46:18;;;;;;;14.75;3.58;;;22.70;99.90;;;;;;4967917;28;20035;-73
2021/12/15 10:48:59;;;;;;;19.88;4.10;;;22.70;99.90;;;;;;4968368;28;20035;-74
2021/12/15 10:51:31;;;;;;;22.52;4.60;;;22.60;99.90;;;;;;4968353;28;20035;-74
2021/12/15 10:54:08;;;;;;;17.70;4.78;;;22.60;99.90;;;;;;4967983;28;20122;-73
2021/12/15 10:56:40;;;;;;;17.85;4.47;;;22.60;99.90;;;;;;4968070;28;20407;-73
2021/12/15 10:59:14;;;;;;;21.65;5.22;;;22.50;99.90;;;;;;4968253;28;20030;-73
2021/12/15 11:01:48;;;;;;;24.17;5.40;;;22.60;99.90;;;;;;4968263;28;20102;-76
2021/12/15 11:04:26;;;;;;;22.40;4.32;;;22.60;99.90;;;;;;4968343;28;20034;-76
2021/12/15 11:07:27;;;;;;;21.00;4.43;;;22.60;99.90;;;;;;4966545;28;20030;-75
2021/12/15 11:10:25;;;;;;;23.13;5.10;;;22.60;99.90;;;;;;4966970;28;20039;-76
2021/12/15 11:12:54;;;;;;;23.83;4.80;;;22.70;99.90;;;;;;4968095;28;20022;-73
2021/12/15 11:15:28;;;;;;;23.42;4.95;;;22.70;99.90;;;;;;4968080;28;20078;-73
2021/12/15 11:18:02;;;;;;;25.52;4.75;;;22.70;99.90;;;;;;4968271;28;20015;-72
2021/12/15 11:20:32;;;;;;;26.52;6.15;;;22.70;99.90;;;;;;4968377;28;20403;-72
2021/12/15 11:23:06;;;;;;;28.98;6.35;;;22.80;99.90;;;;;;4967856;28;20526;-73
2021/12/15 11:25:54;;;;;;;23.77;4.93;;;22.70;99.90;;;;;;4967800;28;20038;-73
2021/12/15 11:28:28;;;;;;;25.88;5.93;;;22.70;99.90;;;;;;4967638;28;20834;-72
2021/12/15 11:31:23;;;;;;;29.48;5.38;;;22.70;99.90;;;;;;4967562;28;20062;-72
2021/12/15 11:34:01;;;;;;;20.88;5.65;;;22.70;99.90;;;;;;4964506;28;20031;-74
2021/12/15 11:36:43;;;;;;;29.17;5.13;;;22.70;99.90;;;;;;4966229;28;20097;-74
2021/12/15 11:39:16;;;;;;;22.42;4.85;;;22.70;99.90;;;;;;4967446;28;20053;-72
2021/12/15 11:41:54;;;;;;;27.05;6.07;;;22.70;99.90;;;;;;4967522;28;20387;-73
2021/12/15 11:44:25;;;;;;;24.75;5.65;;;22.70;99.90;;;;;;4966814;28;20035;-74
2021/12/15 11:46:54;;;;;;;27.17;5.32;;;22.70;99.90;;;;;;4967396;28;20373;-74
2021/12/15 11:49:31;;;;;;;25.90;5.93;;;22.60;99.90;;;;;;4967926;28;20030;-75
2021/12/15 11:52:03;;;;;;;30.98;7.43;;;22.60;99.90;;;;;;4967356;28;20030;-74
2021/12/15 11:54:32;;;;;;;;;;;22.60;99.90;;;;;;4967213;28;20042;-74
2021/12/15 11:57:16;;;;;;;28.83;4.97;;;22.60;99.90;;;;;;4967768;28;19949;-75
2021/12/15 11:59:49;;;;;;;30.42;6.47;;;22.60;99.90;;;;;;4967497;28;20030;-75
2021/12/15 12:02:24;;;;;;;23.05;4.93;;;22.60;99.90;;;;;;4968052;28;20027;-76
2021/12/15 12:05:04;;;;;;;25.13;4.82;;;22.60;99.90;;;;;;4967932;28;20030;-76
2021/12/15 12:07:46;;;;;;;20.50;4.28;;;22.60;99.90;;;;;;4967670;28;20379;-75
2021/12/15 12:10:44;;;;;;;24.48;5.50;;;22.70;99.90;;;;;;4967081;28;20035;-75
2021/12/15 12:13:23;;;;;;;31.90;4.70;;;22.60;99.90;;;;;;4967470;28;21005;-75
2021/12/15 12:15:57;;;;;;;22.60;5.22;;;22.70;99.90;;;;;;4966596;28;20561;-75
2021/12/15 12:18:27;;;;;;;30.98;5.45;;;22.70;99.90;;;;;;4967812;28;20027;-75
2021/12/15 12:20:58;;;;;;;24.30;4.93;;;22.70;99.90;;;;;;4967570;28;20061;-76
2021/12/15 12:23:36;;;;;;;29.45;5.05;;;22.70;99.90;;;;;;4967568;28;20114;-75
2021/12/15 12:26:06;;;;;;;26.33;4.22;;;22.70;99.90;;;;;;4966176;28;20031;-75
2021/12/15 12:28:37;;;;;;;31.40;5.07;;;22.70;99.90;;;;;;4966510;28;20070;-75
2021/12/15 12:31:11;;;;;;;21.08;5.20;;;22.70;99.90;;;;;;4966215;28;20035;-76
2021/12/15 12:33:39;;;;;;;30.58;5.05;;;22.70;99.90;;;;;;4965872;28;20023;-74
2021/12/15 12:36:14;;;;;;;22.60;4.88;;;22.70;99.90;;;;;;4965694;28;20387;-76
2021/12/15 12:38:50;;;;;;;27.80;5.35;;;22.60;99.90;;;;;;4966041;28;20022;-75
2021/12/15 12:41:27;;;;;;;33.75;5.45;;;22.60;99.90;;;;;;4969746;28;20019;-74
2021/12/15 12:43:58;;;;;;;28.45;5.72;;;22.60;99.90;;;;;;4969199;28;20034;-79
2021/12/15 12:46:43;;;;;;;36.05;5.53;;;22.60;99.90;;;;;;4969632;28;20030;-78
2021/12/15 13:00:52;;;;;;;23.52;5.78;;;22.70;99.90;;;;;;4970157;28;20046;-77
2021/12/15 13:03:28;;;;;;;29.58;5.85;;;22.60;99.90;;;;;;4969885;28;20441;-75
2021/12/15 13:06:06;;;;;;;26.95;6.03;;;22.60;99.90;;;;;;4969886;28;20087;-75
2021/12/15 13:08:40;;;;;;;23.38;4.95;;;22.50;99.90;;;;;;4970522;28;20037;-75
2021/12/15 13:11:24;;;;;;;32.03;6.38;;;22.50;99.90;;;;;;4970371;28;20460;-76
2021/12/15 13:13:53;;;;;;;25.40;6.57;;;22.50;99.90;;;;;;4969868;28;20491;-76
2021/12/15 13:16:39;;;;;;;28.05;5.32;;;22.50;99.90;;;;;;4970252;28;20121;-76
2021/12/15 13:19:17;;;;;;;30.83;5.63;;;22.50;99.90;;;;;;4969966;28;20026;-76
2021/12/15 13:21:48;;;;;;;15.63;4.65;;;22.50;99.90;;;;;;4970055;28;20095;-75
2021/12/15 13:30:46;;;;;;;27.35;4.82;;;22.40;99.90;;;;;;4969794;28;20089;-75
2021/12/15 13:33:41;;;;;;;27.35;4.97;;;22.30;99.90;;;;;;4969289;28;20391;-76
2021/12/15 13:36:19;;;;;;;17.25;4.60;;;22.40;99.90;;;;;;4969110;28;20043;-75
2021/12/15 13:38:55;;;;;;;23.67;4.93;;;22.40;99.90;;;;;;4969807;28;20050;-74
2021/12/15 13:41:44;;;;;;;26.88;5.57;;;22.40;99.90;;;;;;4969516;28;20023;-75
2021/12/15 13:44:17;;;;;;;21.77;4.13;;;22.40;99.90;;;;;;4969281;28;20033;-75
2021/12/15 13:46:55;;;;;;;21.08;5.63;;;22.40;99.90;;;;;;4969523;28;20033;-75
2021/12/15 13:49:31;;;;;;;24.60;4.63;;;22.40;99.90;;;;;;4969642;28;20056;-75
2021/12/15 13:52:04;;;;;;;20.65;4.72;;;22.50;99.90;;;;;;4967825;28;20034;-75
2021/12/15 13:54:35;;;;;;;20.95;4.50;;;22.40;99.90;;;;;;4970088;28;20034;-75
2021/12/15 13:57:14;;;;;;;22.20;4.85;;;22.40;99.90;;;;;;4974443;28;20459;-75
2021/12/15 14:00:13;;;;;;;22.02;4.68;;;22.50;99.90;;;;;;4974060;28;20042;-75
2021/12/15 14:03:05;;;;;;;23.88;3.92;;;22.50;99.90;;;;;;4974144;28;20019;-75
2021/12/15 14:05:41;;;;;;;23.30;4.05;;;22.50;99.90;;;;;;4974273;28;20037;-75
2021/12/15 14:08:16;;;;;;;24.77;4.57;;;22.50;99.90;;;;;;4974264;28;20432;-75
2021/12/15 14:11:07;;;;;;;26.73;5.28;;;22.50;99.90;;;;;;4972969;28;20045;-75
2021/12/15 14:13:51;;;;;;;27.02;4.55;;;22.50;99.90;;;;;;4973441;28;20364;-76
2021/12/15 14:16:30;;;;;;;26.02;5.82;;;22.50;99.90;;;;;;4973782;28;20109;-74
2021/12/15 14:19:00;;;;;;;22.88;5.68;;;22.50;99.90;;;;;;4973891;28;20031;-75
2021/12/15 14:21:29;;;;;;;29.83;4.75;;;22.50;99.90;;;;;;4974056;28;20491;-74
2021/12/15 14:23:57;;;;;;;27.02;5.68;;;22.50;99.90;;;;;;4973992;28;20046;-75
2021/12/15 14:26:28;;;;;;;23.75;4.78;;;22.60;99.90;;;;;;4954852;28;20027;-75
2021/12/15 14:28:58;;;;;;;24.38;5.25;;;22.60;99.90;;;;;;4954560;28;20530;-75
2021/12/15 14:31:30;;;;;;;25.65;5.10;;;22.60;99.90;;;;;;4963313;28;20480;-75
2021/12/15 14:34:01;;;;;;;21.50;4.47;;;22.60;99.90;;;;;;4973372;28;20027;-74
2021/12/15 14:36:31;;;;;;;17.15;4.53;;;22.60;99.90;;;;;;4960273;28;20029;-74
2021/12/15 14:39:13;;;;;;;16.50;4.10;;;22.60;99.90;;;;;;4968389;28;20027;-75